Terminal Aerodrome Forecast
Issued by NWS

Home | Current Version | Previous Version | Text Only | Print | Product List | Glossary Off
Versions: 1 2 3 4 5 6 7 8 9 10 11 12 13 14 15 16 17 18 19 20 21 22 23 24 25

902
FTUS43 KUNR 231258 AAA
TAFGCC
TAF AMD
KGCC 231258Z 2313/2412 03009KT P6SM BKN008
     FM231500 03010KT 5SM -SHRA BR OVC008
     FM240000 36007KT 3SM -RA BR OVC003=

USA.gov is the U.S. government's official web portal to all federal, state and local government web resources and services.